createdAt,value
2018-06-13T00:00:46.742Z,14.00
2018-06-13T00:02:48.810Z,14.30
2018-06-13T00:04:50.866Z,14.40
2018-06-13T00:06:52.929Z,14.10
2018-06-13T00:08:55.121Z,14.20
2018-06-13T00:10:57.202Z,14.20
2018-06-13T00:12:59.288Z,14.60
2018-06-13T00:15:01.390Z,14.80
2018-06-13T00:17:03.488Z,14.20
2018-06-13T00:19:05.574Z,14.30
2018-06-13T00:21:07.661Z,14.10
2018-06-13T00:23:09.725Z,14.40
2018-06-13T00:25:11.785Z,14.50
2018-06-13T00:27:13.869Z,14.40
2018-06-13T00:29:15.970Z,14.30
2018-06-13T00:31:18.041Z,14.10
2018-06-13T00:33:20.123Z,14.30
2018-06-13T00:35:22.202Z,13.90
2018-06-13T00:37:24.310Z,13.80
2018-06-13T00:39:26.397Z,13.80
2018-06-13T00:41:28.474Z,13.90
2018-06-13T00:43:30.527Z,13.90
2018-06-13T00:45:32.610Z,14.00
2018-06-13T00:47:34.685Z,13.80
2018-06-13T00:49:36.793Z,13.90
2018-06-13T00:51:38.881Z,13.90
2018-06-13T00:53:40.978Z,14.00
2018-06-13T00:55:54.654Z,14.00
2018-06-13T00:57:56.730Z,14.00
2018-06-13T00:59:58.798Z,13.90
2018-06-13T01:02:00.890Z,14.00
2018-06-13T01:04:02.990Z,14.10
2018-06-13T01:06:05.067Z,14.10
2018-06-13T01:08:07.401Z,14.30
2018-06-13T01:10:09.493Z,14.10
2018-06-13T01:12:11.566Z,13.90
2018-06-13T01:14:13.845Z,13.90
2018-06-13T01:16:15.910Z,14.20
2018-06-13T01:18:18.014Z,13.90
2018-06-13T01:20:20.103Z,14.10
2018-06-13T01:22:22.183Z,14.20
2018-06-13T01:24:24.256Z,14.30
2018-06-13T01:26:26.354Z,14.60
2018-06-13T01:28:28.418Z,14.30
2018-06-13T01:30:30.501Z,14.10
2018-06-13T01:32:32.607Z,14.20
2018-06-13T01:34:34.670Z,14.40
2018-06-13T01:36:36.729Z,14.50
2018-06-13T01:38:38.966Z,14.60
2018-06-13T01:40:41.037Z,14.50
2018-06-13T01:42:43.098Z,14.50
2018-06-13T01:44:45.251Z,14.50
2018-06-13T01:46:47.301Z,14.20
2018-06-13T01:48:49.400Z,14.40
2018-06-13T01:50:55.011Z,14.60
2018-06-13T01:52:57.074Z,14.60
2018-06-13T01:54:59.170Z,14.60
2018-06-13T01:57:01.445Z,14.70
2018-06-13T01:59:03.533Z,14.70
2018-06-13T02:01:05.601Z,14.50
2018-06-13T02:03:07.694Z,14.50
2018-06-13T02:05:09.794Z,14.50
2018-06-13T02:07:11.902Z,14.50
2018-06-13T02:09:13.998Z,14.40
2018-06-13T02:11:16.083Z,14.40
2018-06-13T02:13:18.160Z,14.60
2018-06-13T02:15:20.257Z,14.70
2018-06-13T02:17:22.326Z,14.70
2018-06-13T02:19:24.414Z,14.80
2018-06-13T02:21:26.530Z,14.70
2018-06-13T02:23:28.621Z,14.80
2018-06-13T02:25:30.751Z,14.80
2018-06-13T02:27:32.823Z,14.80
2018-06-13T02:29:34.919Z,14.60
2018-06-13T02:31:36.982Z,14.70
2018-06-13T02:33:39.061Z,14.60
2018-06-13T02:35:41.132Z,14.50
2018-06-13T02:37:43.233Z,14.40
2018-06-13T02:39:45.302Z,14.60
2018-06-13T02:41:47.383Z,14.60
2018-06-13T02:43:49.465Z,14.60
2018-06-13T02:45:51.561Z,14.90
2018-06-13T02:47:53.691Z,15.00
2018-06-13T02:49:55.750Z,15.00
2018-06-13T02:51:57.837Z,14.90
2018-06-13T02:53:59.900Z,15.00
2018-06-13T02:56:01.990Z,15.00
2018-06-13T02:58:04.169Z,14.90
2018-06-13T03:00:06.248Z,15.00
2018-06-13T03:02:08.304Z,15.00
2018-06-13T03:04:10.546Z,15.10
2018-06-13T03:06:12.609Z,15.10
2018-06-13T03:08:14.729Z,15.00
2018-06-13T03:10:17.093Z,15.00
2018-06-13T03:12:19.185Z,14.90
2018-06-13T03:14:21.241Z,15.00
2018-06-13T03:16:23.357Z,15.00
2018-06-13T03:18:25.430Z,14.90
2018-06-13T03:20:27.549Z,15.00
2018-06-13T03:22:30.053Z,15.00
2018-06-13T03:24:32.137Z,15.20
2018-06-13T03:26:34.217Z,15.20
2018-06-13T03:28:36.354Z,15.00
2018-06-13T03:30:38.459Z,14.90
2018-06-13T03:32:40.536Z,15.00
2018-06-13T03:34:42.634Z,14.90
2018-06-13T03:36:44.710Z,14.90
2018-06-13T03:38:46.784Z,14.80
2018-06-13T03:40:48.856Z,14.60
2018-06-13T03:42:50.935Z,14.50
2018-06-13T03:44:53.771Z,14.60
2018-06-13T03:46:55.833Z,14.80
2018-06-13T03:48:57.918Z,14.80
2018-06-13T03:50:59.997Z,14.60
2018-06-13T03:53:02.350Z,14.60
2018-06-13T03:55:04.529Z,14.60
2018-06-13T03:57:06.604Z,14.70
2018-06-13T03:59:08.713Z,14.90
2018-06-13T04:01:10.790Z,15.00
2018-06-13T04:03:13.044Z,15.00
2018-06-13T04:05:15.125Z,15.00
2018-06-13T04:07:17.325Z,15.00
2018-06-13T04:09:19.364Z,15.00
2018-06-13T04:11:21.744Z,14.80
2018-06-13T04:13:24.082Z,14.90
2018-06-13T04:15:26.151Z,15.00
2018-06-13T04:17:28.267Z,15.10
2018-06-13T04:19:30.337Z,15.00
2018-06-13T04:21:32.402Z,14.90
2018-06-13T04:23:34.738Z,14.90
2018-06-13T04:25:36.825Z,15.00
2018-06-13T04:27:38.901Z,15.00
2018-06-13T04:29:41.106Z,15.00
2018-06-13T04:31:43.166Z,15.00
2018-06-13T04:33:45.254Z,15.00
2018-06-13T04:35:47.339Z,15.00
2018-06-13T04:37:49.412Z,15.00
2018-06-13T04:39:52.098Z,15.00
2018-06-13T04:41:54.226Z,15.00
2018-06-13T04:43:56.514Z,15.00
2018-06-13T04:45:58.605Z,14.90
2018-06-13T04:48:00.686Z,15.00
2018-06-13T04:50:04.645Z,15.10
2018-06-13T04:52:06.814Z,15.10
2018-06-13T04:54:09.076Z,15.00
2018-06-13T04:56:11.162Z,15.00
2018-06-13T04:58:13.229Z,15.00
2018-06-13T05:00:15.283Z,14.90
2018-06-13T05:02:17.408Z,14.90
2018-06-13T05:04:19.474Z,14.80
2018-06-13T05:06:21.540Z,14.90
2018-06-13T05:08:23.661Z,14.90
2018-06-13T05:10:25.785Z,15.00
2018-06-13T05:12:27.846Z,15.10
2018-06-13T05:14:29.909Z,15.20
2018-06-13T05:16:31.974Z,15.10
2018-06-13T05:18:34.058Z,15.20
2018-06-13T05:20:36.131Z,15.20
2018-06-13T05:22:38.238Z,15.20
2018-06-13T05:24:40.293Z,15.10
2018-06-13T05:26:42.390Z,15.10
2018-06-13T05:28:44.492Z,15.00
2018-06-13T05:30:46.554Z,15.00
2018-06-13T05:32:49.026Z,15.10
2018-06-13T05:34:51.082Z,15.20
2018-06-13T05:36:53.157Z,15.20
2018-06-13T05:38:56.063Z,15.00
2018-06-13T05:40:58.154Z,15.10
2018-06-13T05:43:00.238Z,15.10
2018-06-13T05:45:02.396Z,15.30
2018-06-13T05:47:04.506Z,15.30
2018-06-13T05:49:07.233Z,15.20
2018-06-13T05:51:09.493Z,15.20
2018-06-13T05:53:11.579Z,15.20
2018-06-13T05:55:13.644Z,15.10
2018-06-13T05:57:15.722Z,15.20
2018-06-13T05:59:17.817Z,15.20
2018-06-13T06:01:19.932Z,15.20
2018-06-13T06:03:21.986Z,15.20
2018-06-13T06:05:24.365Z,15.30
2018-06-13T06:07:26.452Z,15.20
2018-06-13T06:09:28.527Z,15.30
2018-06-13T06:11:30.610Z,15.30
2018-06-13T06:13:33.882Z,15.40
2018-06-13T06:15:35.949Z,15.60
2018-06-13T06:17:38.015Z,15.70
2018-06-13T06:19:41.109Z,15.80
2018-06-13T06:21:43.351Z,15.90
2018-06-13T06:23:45.443Z,16.00
2018-06-13T06:25:47.594Z,15.80
2018-06-13T06:27:49.683Z,15.60
2018-06-13T06:29:51.794Z,15.60
2018-06-13T06:31:53.898Z,15.70
2018-06-13T06:33:56.040Z,15.70
2018-06-13T06:35:58.140Z,15.70
2018-06-13T06:38:00.244Z,15.80
2018-06-13T06:40:02.422Z,15.80
2018-06-13T06:42:04.997Z,16.10
2018-06-13T06:44:07.108Z,16.20
2018-06-13T06:46:09.214Z,16.30
2018-06-13T06:48:11.327Z,16.40
2018-06-13T06:50:13.424Z,16.70
2018-06-13T06:52:15.537Z,16.80
2018-06-13T06:54:17.631Z,17.00
2018-06-13T06:56:19.735Z,16.90
2018-06-13T06:58:21.935Z,16.90
2018-06-13T07:00:24.028Z,17.00
2018-06-13T07:02:26.121Z,17.20
2018-06-13T07:04:28.234Z,17.20
2018-06-13T07:06:30.382Z,16.90
2018-06-13T07:08:32.488Z,16.80
2018-06-13T07:10:34.624Z,16.80
2018-06-13T07:12:36.743Z,16.70
2018-06-13T07:14:38.833Z,16.80
2018-06-13T07:16:40.962Z,16.90
2018-06-13T07:18:43.103Z,17.20
2018-06-13T07:20:45.371Z,17.30
2018-06-13T07:22:47.491Z,17.10
2018-06-13T07:24:49.577Z,17.10
2018-06-13T07:26:51.686Z,17.30
2018-06-13T07:28:53.760Z,17.60
2018-06-13T07:30:55.852Z,17.80
2018-06-13T07:32:58.226Z,17.90
2018-06-13T07:35:00.295Z,17.90
2018-06-13T07:37:02.396Z,17.80
2018-06-13T07:39:07.238Z,17.70
2018-06-13T07:41:09.329Z,17.40
2018-06-13T07:43:11.425Z,17.10
2018-06-13T07:45:13.656Z,17.00
2018-06-13T07:47:15.758Z,16.80
2018-06-13T07:49:17.854Z,16.90
2018-06-13T07:51:20.253Z,17.10
2018-06-13T07:53:22.388Z,17.30
2018-06-13T07:55:24.512Z,17.40
2018-06-13T07:57:26.641Z,17.50
2018-06-13T07:59:28.730Z,17.60
2018-06-13T08:01:30.832Z,17.70
2018-06-13T08:03:32.909Z,17.80
2018-06-13T08:05:35.023Z,17.90
2018-06-13T08:07:37.117Z,18.00
2018-06-13T08:09:39.335Z,17.90
2018-06-13T08:11:41.752Z,18.00
2018-06-13T08:13:43.834Z,18.20
2018-06-13T08:15:45.939Z,17.90
2018-06-13T08:17:48.042Z,17.80
2018-06-13T08:19:50.123Z,17.80
2018-06-13T08:21:52.401Z,17.80
2018-06-13T08:23:54.498Z,17.70
2018-06-13T08:25:56.626Z,17.70
2018-06-13T08:27:58.898Z,17.50
2018-06-13T08:30:01.001Z,17.80
2018-06-13T08:32:03.099Z,18.10
2018-06-13T08:34:05.252Z,18.40
2018-06-13T08:36:07.334Z,18.60
2018-06-13T08:38:09.439Z,18.90
2018-06-13T08:40:11.544Z,19.30
2018-06-13T08:42:13.617Z,19.10
2018-06-13T08:44:15.695Z,18.70
2018-06-13T08:46:17.818Z,18.50
2018-06-13T08:48:19.903Z,18.60
2018-06-13T08:50:22.018Z,18.70
2018-06-13T08:52:24.107Z,18.70
2018-06-13T08:54:26.203Z,18.90
2018-06-13T08:56:28.309Z,19.00
2018-06-13T08:58:30.432Z,18.70
2018-06-13T09:00:32.530Z,18.60
2018-06-13T09:02:34.615Z,18.60
2018-06-13T09:04:36.808Z,18.70
2018-06-13T09:06:45.661Z,18.40
2018-06-13T09:08:47.745Z,18.30
2018-06-13T09:10:49.833Z,18.30
2018-06-13T09:12:51.944Z,18.50
2018-06-13T09:14:54.071Z,18.70
2018-06-13T09:16:56.150Z,18.90
2018-06-13T09:18:58.280Z,19.10
2018-06-13T09:21:00.386Z,19.20
2018-06-13T09:23:02.508Z,19.20
2018-06-13T09:25:04.713Z,19.30
2018-06-13T09:27:06.836Z,19.50
2018-06-13T09:29:09.208Z,19.50
2018-06-13T09:31:11.316Z,19.50
2018-06-13T09:33:13.400Z,19.70
2018-06-13T09:35:15.517Z,19.70
2018-06-13T09:37:17.614Z,19.30
2018-06-13T09:39:19.688Z,19.20
2018-06-13T09:41:21.779Z,19.30
2018-06-13T09:43:23.894Z,19.20
2018-06-13T09:45:25.992Z,19.30
2018-06-13T09:47:28.098Z,19.50
2018-06-13T09:49:31.119Z,19.70
2018-06-13T09:51:33.199Z,19.20
2018-06-13T09:53:35.332Z,18.90
2018-06-13T09:55:37.410Z,18.90
2018-06-13T09:57:39.502Z,19.10
2018-06-13T09:59:47.380Z,19.20
2018-06-13T10:01:55.260Z,19.40
2018-06-13T10:03:57.364Z,19.80
2018-06-13T10:05:59.528Z,19.50
2018-06-13T10:08:01.636Z,19.10
2018-06-13T10:10:03.776Z,18.90
2018-06-13T10:12:05.916Z,18.80
2018-06-13T10:14:08.003Z,18.90
2018-06-13T10:16:10.147Z,18.70
2018-06-13T10:18:12.243Z,18.80
2018-06-13T10:20:14.360Z,18.90
2018-06-13T10:22:16.492Z,18.90
2018-06-13T10:24:18.562Z,18.90
2018-06-13T10:26:20.643Z,19.40
2018-06-13T10:28:22.751Z,19.30
2018-06-13T10:30:24.842Z,19.40
2018-06-13T10:32:26.912Z,19.50
2018-06-13T10:34:29.002Z,19.70
2018-06-13T10:36:31.127Z,19.80
2018-06-13T10:38:33.203Z,19.80
2018-06-13T10:40:35.328Z,19.70
2018-06-13T10:42:37.393Z,19.70
2018-06-13T10:44:39.498Z,19.70
2018-06-13T10:46:41.611Z,19.40
2018-06-13T10:48:43.685Z,19.40
2018-06-13T10:50:45.762Z,19.40
2018-06-13T10:52:48.203Z,19.30
2018-06-13T10:54:50.275Z,19.10
2018-06-13T10:56:52.387Z,19.10
2018-06-13T10:58:54.528Z,19.00
2018-06-13T11:00:56.615Z,18.90
2018-06-13T11:02:58.711Z,18.80
2018-06-13T11:05:00.886Z,18.80
2018-06-13T11:07:03.014Z,18.50
2018-06-13T11:09:07.109Z,18.40
2018-06-13T11:11:09.212Z,18.50
2018-06-13T11:13:11.315Z,18.60
2018-06-13T11:15:13.430Z,18.50
2018-06-13T11:17:15.716Z,18.80
2018-06-13T11:19:17.803Z,19.00
2018-06-13T11:21:19.897Z,19.10
2018-06-13T11:23:21.990Z,18.90
2018-06-13T11:25:24.090Z,19.60
2018-06-13T11:27:26.190Z,19.80
2018-06-13T11:29:28.296Z,20.00
2018-06-13T11:31:30.421Z,20.10
2018-06-13T11:33:32.501Z,20.20
2018-06-13T11:35:34.751Z,20.30
2018-06-13T11:37:36.938Z,20.40
2018-06-13T11:39:39.039Z,20.10
2018-06-13T11:41:41.143Z,19.90
2018-06-13T11:43:43.292Z,19.70
2018-06-13T11:45:45.408Z,19.40
2018-06-13T11:47:47.528Z,19.30
2018-06-13T11:49:49.643Z,19.20
2018-06-13T11:51:51.856Z,19.30
2018-06-13T11:53:54.022Z,19.30
2018-06-13T11:55:56.120Z,19.10
2018-06-13T11:57:58.387Z,18.70
2018-06-13T12:00:00.496Z,18.70
2018-06-13T12:02:02.609Z,19.00
2018-06-13T12:04:04.806Z,18.70
2018-06-13T12:06:06.970Z,18.70
2018-06-13T12:08:09.006Z,18.60
2018-06-13T12:10:11.128Z,18.80
2018-06-13T12:12:13.214Z,18.60
2018-06-13T12:14:15.311Z,18.20
2018-06-13T12:16:17.427Z,18.60
2018-06-13T12:18:19.519Z,18.30
2018-06-13T12:20:21.616Z,18.40
2018-06-13T12:22:23.729Z,18.70
2018-06-13T12:24:25.843Z,18.80
2018-06-13T12:26:27.975Z,18.80
2018-06-13T12:28:30.393Z,19.00
2018-06-13T12:30:32.434Z,19.10
2018-06-13T12:32:34.540Z,19.10
2018-06-13T12:34:36.641Z,19.20
2018-06-13T12:36:38.736Z,19.30
2018-06-13T12:38:41.115Z,19.40
2018-06-13T12:40:43.228Z,19.40
2018-06-13T12:42:45.307Z,19.50
2018-06-13T12:44:47.395Z,19.40
2018-06-13T12:46:49.492Z,19.10
2018-06-13T12:48:51.617Z,18.90
2018-06-13T12:50:53.758Z,18.70
2018-06-13T12:52:56.250Z,18.50
2018-06-13T12:54:58.350Z,18.20
2018-06-13T12:57:00.460Z,18.20
2018-06-13T12:59:02.704Z,18.20
2018-06-13T13:01:04.668Z,18.10
2018-06-13T13:03:06.755Z,18.30
2018-06-13T13:05:08.870Z,18.30
2018-06-13T13:07:10.951Z,18.30
2018-06-13T13:09:13.320Z,18.20
2018-06-13T13:11:15.548Z,17.90
2018-06-13T13:13:17.612Z,17.70
2018-06-13T13:15:19.714Z,17.90
2018-06-13T13:17:21.994Z,18.00
2018-06-13T13:19:24.162Z,17.90
2018-06-13T13:21:28.744Z,17.80
2018-06-13T13:23:30.906Z,17.90
2018-06-13T13:25:35.377Z,18.00
2018-06-13T13:27:37.522Z,18.10
2018-06-13T13:29:39.670Z,18.20
2018-06-13T13:31:41.775Z,18.30
2018-06-13T13:33:43.942Z,18.50
2018-06-13T13:35:46.121Z,18.60
2018-06-13T13:37:48.179Z,18.40
2018-06-13T13:39:50.290Z,18.30
2018-06-13T13:41:52.384Z,18.10
2018-06-13T13:43:54.909Z,18.10
2018-06-13T13:48:06.852Z,18.30
2018-06-13T13:50:08.991Z,18.20
2018-06-13T13:52:11.146Z,18.40
2018-06-13T13:54:13.346Z,18.40
2018-06-13T13:56:15.340Z,18.50
2018-06-13T13:58:17.465Z,18.20
2018-06-13T14:00:19.621Z,18.20
2018-06-13T14:02:23.014Z,18.20
2018-06-13T14:04:25.884Z,18.40
2018-06-13T14:06:27.978Z,18.10
2018-06-13T14:08:30.078Z,18.30
2018-06-13T14:10:32.184Z,18.50
2018-06-13T14:12:34.319Z,18.60
2018-06-13T14:14:36.415Z,18.70
2018-06-13T14:16:38.505Z,18.70
2018-06-13T14:18:40.665Z,18.50
2018-06-13T14:20:42.767Z,18.70
2018-06-13T14:22:45.046Z,18.50
2018-06-13T14:24:47.121Z,18.80
2018-06-13T14:26:49.205Z,19.00
2018-06-13T14:28:51.291Z,18.80
2018-06-13T14:30:53.389Z,18.90
2018-06-13T14:32:55.494Z,18.90
2018-06-13T14:34:58.302Z,19.00
2018-06-13T14:37:00.436Z,18.70
2018-06-13T14:39:03.915Z,18.70
2018-06-13T14:41:06.117Z,18.90
2018-06-13T14:43:08.190Z,18.90
2018-06-13T14:45:10.496Z,18.80
2018-06-13T14:47:12.603Z,18.60
2018-06-13T14:49:14.725Z,18.70
2018-06-13T14:51:17.417Z,18.60
2018-06-13T14:53:19.511Z,18.40
2018-06-13T14:55:21.733Z,18.50
2018-06-13T14:57:23.834Z,18.50
2018-06-13T14:59:25.927Z,18.80
2018-06-13T15:01:28.170Z,19.00
2018-06-13T15:03:30.690Z,19.20
2018-06-13T15:05:32.802Z,19.40
2018-06-13T15:07:34.898Z,19.40
2018-06-13T15:09:37.003Z,19.50
2018-06-13T15:11:39.451Z,19.50
2018-06-13T15:13:41.596Z,19.50
2018-06-13T15:15:43.820Z,19.20
2018-06-13T15:17:45.919Z,19.10
2018-06-13T15:19:48.015Z,19.00
2018-06-13T15:21:50.159Z,18.80
2018-06-13T15:23:52.267Z,18.40
2018-06-13T15:25:54.423Z,18.50
2018-06-13T15:27:56.580Z,18.50
2018-06-13T15:29:58.686Z,18.70
2018-06-13T15:32:00.761Z,18.50
2018-06-13T15:34:02.889Z,18.50
2018-06-13T15:36:05.459Z,18.30
2018-06-13T15:38:07.565Z,18.40
2018-06-13T15:40:09.726Z,18.60
2018-06-13T15:42:11.816Z,18.60
2018-06-13T15:44:13.962Z,18.50
2018-06-13T15:46:16.057Z,18.20
2018-06-13T15:48:18.150Z,18.00
2018-06-13T15:50:20.682Z,18.10
2018-06-13T15:52:22.802Z,18.10
2018-06-13T15:54:25.053Z,18.20
2018-06-13T15:56:27.302Z,18.10
2018-06-13T15:58:29.462Z,18.20
2018-06-13T16:00:31.621Z,17.90
2018-06-13T16:02:33.841Z,17.70
2018-06-13T16:04:36.002Z,17.80
2018-06-13T16:06:38.214Z,17.80
2018-06-13T16:08:40.559Z,17.80
2018-06-13T16:10:42.826Z,17.80
2018-06-13T16:12:44.972Z,17.60
2018-06-13T16:14:47.145Z,17.70
2018-06-13T16:16:49.289Z,17.40
2018-06-13T16:18:51.446Z,17.70
2018-06-13T16:20:53.666Z,17.80
2018-06-13T16:22:56.006Z,17.80
2018-06-13T16:24:58.171Z,17.70
2018-06-13T16:27:00.310Z,17.70
2018-06-13T16:29:02.566Z,17.80
2018-06-13T16:31:06.694Z,17.80
2018-06-13T16:33:08.861Z,17.80
2018-06-13T16:35:11.019Z,17.70
2018-06-13T16:37:13.222Z,17.70
2018-06-13T16:39:15.385Z,17.80
2018-06-13T16:41:17.522Z,17.80
2018-06-13T16:43:19.673Z,17.80
2018-06-13T16:45:21.867Z,17.70
2018-06-13T16:47:24.019Z,17.50
2018-06-13T16:49:26.176Z,17.50
2018-06-13T16:51:39.934Z,17.60
2018-06-13T16:53:56.114Z,17.50
2018-06-13T16:55:58.267Z,17.60
2018-06-13T16:58:00.987Z,17.70
2018-06-13T17:00:03.189Z,17.70
2018-06-13T17:02:05.359Z,17.80
2018-06-13T17:04:07.759Z,17.60
2018-06-13T17:06:11.077Z,17.60
2018-06-13T17:08:13.210Z,17.70
2018-06-13T17:10:15.379Z,17.50
2018-06-13T17:12:17.570Z,17.50
2018-06-13T17:14:19.738Z,17.20
2018-06-13T17:16:22.061Z,17.10
2018-06-13T17:18:24.305Z,17.00
2018-06-13T17:20:26.459Z,16.90
2018-06-13T17:22:28.617Z,17.20
2018-06-13T17:24:30.788Z,17.10
2018-06-13T17:26:32.967Z,17.00
2018-06-13T17:28:35.061Z,17.10
2018-06-13T17:30:37.178Z,16.90
2018-06-13T17:32:39.361Z,17.10
2018-06-13T17:34:41.502Z,17.10
2018-06-13T17:36:43.647Z,17.10
2018-06-13T17:38:46.073Z,17.20
2018-06-13T17:40:48.379Z,17.10
2018-06-13T17:42:50.756Z,17.00
2018-06-13T17:44:52.920Z,16.80
2018-06-13T17:46:55.067Z,16.80
2018-06-13T17:48:57.225Z,17.10
2018-06-13T17:50:59.362Z,17.20
2018-06-13T17:53:01.642Z,17.20
2018-06-13T17:55:03.929Z,17.10
2018-06-13T17:57:06.226Z,17.10
2018-06-13T17:59:08.389Z,16.90
2018-06-13T18:01:10.517Z,17.00
2018-06-13T18:03:12.756Z,17.00
2018-06-13T18:05:15.191Z,17.00
2018-06-13T18:07:17.506Z,16.90
2018-06-13T18:09:19.706Z,16.60
2018-06-13T18:11:21.918Z,16.50
2018-06-13T18:13:24.274Z,16.60
2018-06-13T18:15:26.706Z,16.80
2018-06-13T18:17:28.887Z,16.80
2018-06-13T18:19:31.140Z,16.90
2018-06-13T18:21:33.399Z,16.70
2018-06-13T18:23:35.633Z,16.30
2018-06-13T18:25:37.968Z,16.10
2018-06-13T18:27:40.190Z,16.00
2018-06-13T18:29:42.383Z,16.10
2018-06-13T18:31:44.570Z,16.10
2018-06-13T18:33:46.827Z,16.40
2018-06-13T18:35:49.046Z,16.60
2018-06-13T18:37:51.503Z,16.70
2018-06-13T18:39:53.877Z,16.50
2018-06-13T18:41:56.136Z,16.50
2018-06-13T18:43:58.580Z,16.40
2018-06-13T18:46:02.634Z,16.50
2018-06-13T18:48:04.888Z,16.60
2018-06-13T18:50:07.085Z,16.60
2018-06-13T18:52:09.940Z,16.50
2018-06-13T18:54:12.077Z,16.60
2018-06-13T18:56:14.442Z,16.60
2018-06-13T18:58:16.650Z,16.30
2018-06-13T19:00:19.030Z,16.10
2018-06-13T19:02:21.170Z,16.20
2018-06-13T19:04:23.466Z,16.00
2018-06-13T19:06:25.992Z,16.10
2018-06-13T19:08:28.231Z,16.10
2018-06-13T19:10:30.593Z,16.30
2018-06-13T19:12:32.886Z,16.10
2018-06-13T19:14:35.115Z,16.20
2018-06-13T19:16:37.560Z,16.10
2018-06-13T19:18:39.897Z,16.20
2018-06-13T19:20:42.190Z,16.20
2018-06-13T19:22:44.363Z,16.10
2018-06-13T19:24:46.612Z,16.00
2018-06-13T19:26:48.818Z,16.30
2018-06-13T19:28:51.710Z,16.30
2018-06-13T19:30:53.910Z,16.40
2018-06-13T19:32:56.246Z,16.30
2018-06-13T19:34:58.796Z,16.30
2018-06-13T19:37:19.529Z,16.30
2018-06-13T19:39:27.228Z,16.20
2018-06-13T19:41:44.334Z,16.20
2018-06-13T19:43:47.429Z,15.80
2018-06-13T19:45:49.702Z,15.70
2018-06-13T19:47:57.862Z,15.90
2018-06-13T19:50:00.065Z,16.10
2018-06-13T19:52:02.415Z,16.20
2018-06-13T19:54:10.966Z,16.00
2018-06-13T19:56:14.399Z,16.00
2018-06-13T19:58:16.570Z,16.00
2018-06-13T20:00:19.038Z,16.10
2018-06-13T20:02:21.359Z,16.10
2018-06-13T20:04:29.228Z,16.10
2018-06-13T20:06:31.574Z,16.10
2018-06-13T20:08:40.340Z,16.30
2018-06-13T20:10:43.837Z,16.40
2018-06-13T20:12:55.333Z,16.10
2018-06-13T20:15:03.464Z,16.20
2018-06-13T20:17:11.163Z,16.30
2018-06-13T20:19:50.462Z,16.30
2018-06-13T20:21:53.925Z,16.20
2018-06-13T20:23:56.159Z,16.20
2018-06-13T20:26:04.009Z,16.20
2018-06-13T20:28:11.938Z,16.30
2018-06-13T20:31:23.447Z,16.20
2018-06-13T20:33:25.807Z,16.20
2018-06-13T20:35:28.076Z,15.80
2018-06-13T20:37:30.190Z,16.00
2018-06-13T20:39:32.544Z,15.90
2018-06-13T20:41:34.695Z,15.80
2018-06-13T20:43:36.913Z,15.90
2018-06-13T20:45:39.116Z,15.70
2018-06-13T20:47:41.384Z,15.80
2018-06-13T20:49:43.599Z,15.70
2018-06-13T20:51:45.778Z,15.70
2018-06-13T20:53:48.067Z,15.60
2018-06-13T20:55:50.191Z,15.70
2018-06-13T20:57:52.642Z,15.10
2018-06-13T20:59:54.818Z,15.30
2018-06-13T21:01:57.006Z,15.50
2018-06-13T21:03:59.194Z,15.70
2018-06-13T21:06:01.432Z,15.60
2018-06-13T21:08:03.663Z,15.70
2018-06-13T21:10:05.839Z,15.70
2018-06-13T21:12:07.992Z,15.70
2018-06-13T21:14:10.161Z,15.70
2018-06-13T21:16:12.330Z,15.70
2018-06-13T21:18:15.390Z,15.50
2018-06-13T21:20:17.693Z,15.40
2018-06-13T21:22:20.060Z,15.50
2018-06-13T21:24:22.270Z,15.30
2018-06-13T21:26:24.595Z,15.20
2018-06-13T21:28:26.862Z,15.30
2018-06-13T21:30:28.998Z,15.40
2018-06-13T21:32:31.259Z,15.40
2018-06-13T21:34:33.402Z,15.60
2018-06-13T21:36:35.638Z,15.70
2018-06-13T21:38:37.814Z,15.70
2018-06-13T21:40:40.015Z,15.70
2018-06-13T21:42:42.154Z,15.20
2018-06-13T21:44:44.321Z,15.10
2018-06-13T21:46:46.436Z,15.00
2018-06-13T21:48:48.581Z,14.80
2018-06-13T21:50:50.701Z,14.70
2018-06-13T21:52:52.832Z,14.70
2018-06-13T21:54:54.960Z,14.70
2018-06-13T21:56:57.027Z,14.70
2018-06-13T21:58:59.215Z,14.70
2018-06-13T22:01:01.225Z,14.60
2018-06-13T22:03:03.303Z,14.70
2018-06-13T22:05:05.489Z,14.80
2018-06-13T22:07:07.581Z,14.80
2018-06-13T22:09:10.574Z,14.80
2018-06-13T22:11:12.634Z,14.70
2018-06-13T22:13:14.715Z,14.60
2018-06-13T22:15:26.026Z,14.60
2018-06-13T22:17:28.082Z,14.80
2018-06-13T22:19:30.199Z,14.90
2018-06-13T22:21:32.284Z,14.90
2018-06-13T22:23:34.373Z,15.20
2018-06-13T22:25:37.164Z,15.20
2018-06-13T22:27:40.256Z,15.10
2018-06-13T22:29:42.349Z,14.80
2018-06-13T22:31:44.422Z,14.40
2018-06-13T22:33:46.515Z,14.40
2018-06-13T22:35:48.605Z,14.30
2018-06-13T22:37:50.712Z,14.30
2018-06-13T22:39:52.817Z,14.20
2018-06-13T22:41:54.878Z,14.10
2018-06-13T22:43:57.229Z,14.10
2018-06-13T22:45:59.322Z,14.30
2018-06-13T22:48:01.382Z,14.40
2018-06-13T22:50:03.787Z,14.40
2018-06-13T22:52:05.845Z,14.30
2018-06-13T22:54:07.918Z,14.00
2018-06-13T22:56:10.045Z,14.00
2018-06-13T22:58:12.142Z,13.90
2018-06-13T23:00:21.306Z,13.90
2018-06-13T23:02:23.396Z,14.00
2018-06-13T23:04:25.466Z,14.10
2018-06-13T23:06:27.537Z,14.00
2018-06-13T23:08:30.479Z,13.90
2018-06-13T23:10:32.555Z,13.90
2018-06-13T23:12:34.618Z,13.90
2018-06-13T23:14:36.708Z,13.80
2018-06-13T23:16:38.786Z,13.90
2018-06-13T23:18:40.862Z,13.80
2018-06-13T23:20:43.126Z,13.80
2018-06-13T23:22:45.233Z,13.90
2018-06-13T23:24:47.566Z,13.90
2018-06-13T23:26:49.710Z,14.00
2018-06-13T23:28:51.721Z,14.40
2018-06-13T23:30:53.803Z,14.20
2018-06-13T23:32:55.939Z,14.00
2018-06-13T23:34:58.112Z,13.90
2018-06-13T23:37:00.219Z,13.90
2018-06-13T23:39:02.526Z,13.90
2018-06-13T23:41:04.709Z,13.90
2018-06-13T23:43:06.877Z,13.90
2018-06-13T23:45:15.613Z,13.80
2018-06-13T23:47:17.750Z,13.80
2018-06-13T23:49:20.106Z,13.90
2018-06-13T23:51:22.166Z,13.80
2018-06-13T23:53:24.233Z,13.90
2018-06-13T23:55:26.333Z,14.00
2018-06-13T23:57:28.446Z,13.90
2018-06-13T23:59:30.668Z,13.90
